Weather observations for the past three days for
Chico Municipal Airport
Imperial (Metric)
Date Time (pdt) Wind (mph) Vis. (mi.) Weather Sky Cond. Temperature (ºF) Relative Humidity Wind Chill (°F) Heat Index (°F) Pressure Precipitation (in)
Air Dwpt 6 hour altimeter (in) sea level (mb) 1 hr 3 hr 6 hr
Max. Min.
01 21:55 SE 16 G 21 10.00 A Few Clouds FEW120 69.8 48.2 46% 29.96 0.0
01 21:35 SE 14 10.00 Fair CLR 71.6 48.2 44% 29.96 0.0
01 21:15 SE 13 10.00 Fair CLR 71.6 46.4 41% 29.95 0.0
01 18:47 SE 9 10.00 Partly Cloudy FEW060 SCT100 73.4 46.4 38% 29.93 0.0
01 17:47 S 9 10.00 Partly Cloudy FEW060 SCT100 73.4 46.4 38% 29.93 0.0
01 16:47 SE 16 10.00 Mostly Cloudy SCT060 BKN120 73.4 48.2 41% 29.95 0.0
01 15:47 SE 14 G 23 10.00 Partly Cloudy SCT050 73.4 46.4 38% 29.95 0.0
01 14:47 SE 17 10.00 Partly Cloudy SCT050 71.6 48.2 44% 29.97 0.0
01 13:47 S 12 10.00 Partly Cloudy SCT040 71.6 50 47% 29.98 0.0
01 11:47 SE 18 10.00 Mostly Cloudy BKN033 68 51.8 56% 30.01 0.0
01 10:47 SE 14 10.00 Overcast OVC029 64.4 51.8 64% 30.01 0.0
01 09:50 SE 15 10.00 Overcast OVC024 62.6 53.6 73% 30 0.0
01 08:47 SE 10 10.00 Overcast OVC022 60.8 51.8 72% 29.98 0.0
01 07:55 SE 8 10.00 Overcast OVC022 59 51.8 77% 29.97 0.0
01 07:47 SE 8 10.00 Mostly Cloudy BKN022 59 51.8 77% 29.97 0.0
01 07:35 E 7 10.00 Overcast OVC020 59 51.8 77% 29.96 0.0
01 07:15 SE 9 10.00 Overcast OVC018 59 53.6 82% 29.95 0.0
01 06:55 S 10 10.00 Overcast OVC016 59 53.6 82% 29.94 0.0
01 06:47 SE 12 10.00 Mostly Cloudy BKN018 59 53.6 82% 29.93 0.0
01 06:35 SE 13 10.00 Overcast OVC018 59 53.6 82% 29.93 0.0
01 06:15 SE 9 10.00 Overcast OVC018 59 51.8 77% 29.93 0.0
01 05:55 SE 6 10.00 Overcast OVC020 57.2 51.8 82% 29.92 0.0
01 05:35 SE 7 10.00 Overcast OVC020 57.2 53.6 88% 29.92 0.0
01 05:15 S 7 10.00 Overcast OVC018 59 53.6 82% 29.94 0.0
01 04:55 SE 7 10.00 Partly Cloudy SCT018 57.2 51.8 82% 29.94 0.0
01 04:35 SE 8 10.00 Fair CLR 59 51.8 77% 29.93 0.0
01 04:15 SE 10 10.00 Fair CLR 59 53.6 82% 29.92 0.0
01 03:55 SE 13 10.00 Fair CLR 59 53.6 82% 29.92 0.0
01 03:35 SE 13 10.00 Fair CLR 59 53.6 82% 29.91 0.0
01 03:15 S 9 10.00 Fair CLR 59 53.6 82% 29.92 0.0
01 02:55 S 9 10.00 Fair CLR 59 51.8 77% 29.9 0.0
31 18:47 SE 14 10.00 Fair CLR 77 50 39% 78 29.8 0.0
31 17:47 S 15 10.00 Fair CLR 80.6 50 34% 80 29.8 0.0
31 16:47 SE 16 10.00 Fair CLR 82.4 48.2 30% 81 29.8 0.0
31 15:52 SE 13 10.00 Fair CLR 78.8 53.6 42% 79 29.83 0.0
31 14:47 SE 12 10.00 Fair CLR 75.2 53.6 47% 78 29.85 0.0
31 13:47 S 9 10.00 Fair CLR 75.2 53.6 47% 78 29.87 0.0
31 12:47 S 9 10.00 Fair CLR 77 50 39% 78 29.88 0.0
31 11:47 S 5 10.00 Fair CLR 75.2 48.2 39% 77 29.88 0.0
31 10:47 S 7 10.00 Fair CLR 73.4 50 44% 29.89 0.0
31 09:47 S 5 10.00 Fair CLR 71.6 50 47% 29.89 0.0
31 08:47 SE 6 10.00 Fair CLR 68 50 53% 29.89 0.0
31 08:15 SE 5 10.00 Fair CLR 66.2 46.4 49% 29.89 0.0
31 07:55 SE 3 10.00 Fair CLR 64.4 44.6 49% 29.89 0.0
31 07:47 SE 6 10.00 Fair CLR 64.4 44.6 49% 29.89 0.0
31 07:15 Calm 10.00 Fair CLR 62.6 44.6 52% 29.87 0.0
31 06:47 Calm 10.00 Fair CLR 62.6 46.4 56% 29.87 0.0
31 06:35 Calm 10.00 Fair CLR 64.4 46.4 52% 29.87 0.0
31 06:15 Calm 10.00 Fair CLR 64.4 48.2 56% 29.86 0.0
31 05:35 Calm 10.00 Fair CLR 64.4 46.4 52% 29.85 0.0
31 05:15 N 3 10.00 Fair CLR 64.4 46.4 52% 29.85 0.0
31 04:55 N 3 10.00 A Few Clouds FEW075 62.6 44.6 52% 29.85 0.0
31 04:35 NW 3 10.00 Mostly Cloudy BKN075 64.4 46.4 52% 29.84 0.0
31 04:15 N 3 10.00 Mostly Cloudy BKN075 64.4 46.4 52% 29.84 0.0
31 03:55 NW 6 10.00 A Few Clouds FEW075 62.6 44.6 52% 29.84 0.0
31 03:35 NW 6 10.00 Fair CLR 62.6 42.8 49% 29.84 0.0
31 03:15 W 8 10.00 Fair CLR 66.2 42.8 43% 29.84 0.0
31 02:55 Calm 10.00 Fair CLR 71.6 39.2 31% 29.83 0.0
31 02:35 Calm 10.00 Fair CLR 71.6 39.2 31% 29.83 0.0
31 02:15 Calm 10.00 Fair CLR 71.6 41 33% 29.83 0.0
30 21:15 E 5 10.00 Fair CLR 80.6 46.4 30% 80 29.82 0.0
30 18:47 SE 9 10.00 Fair CLR 86 46.4 25% 83 29.8 0.0
30 17:50 SE 9 10.00 Fair CLR 89.6 32 13% 86 29.81 0.0
30 15:50 SE 14 10.00 Fair CLR 91.4 44.6 20% 88 29.83 0.0
30 14:50 Vrbl 6 10.00 Fair CLR 89.6 41 18% 86 29.86 0.0
30 13:50 Vrbl 6 10.00 Fair CLR 86 42.8 22% 83 29.88 0.0
30 12:50 Vrbl 5 10.00 Fair CLR 84.2 48.2 29% 82 29.9 0.0
30 10:50 Vrbl 5 10.00 Fair CLR 75.2 46.4 36% 77 29.93 0.0
30 09:55 S 5 10.00 Fair CLR 75.2 48.2 39% 77 29.93 0.0
30 08:50 S 5 10.00 Fair CLR 68 46.4 46% 29.94 0.0
30 08:15 Calm 10.00 Fair CLR 66.2 42.8 43% 29.94 0.0
30 07:55 Calm 10.00 Fair CLR 64.4 44.6 49% 29.94 0.0
30 07:50 SE 3 10.00 Fair CLR 64.4 44.6 49% 29.94 0.0
30 07:35 Calm 10.00 Fair CLR 64.4 39.2 40% 29.94 0.0
30 07:15 Calm 10.00 Fair CLR 62.6 39.2 42% 29.93 0.0
30 06:55 NE 5 10.00 Fair CLR 62.6 39.2 42% 29.93 0.0
30 06:35 Calm 10.00 Fair CLR 62.6 39.2 42% 29.92 0.0
30 06:15 Calm 10.00 Fair CLR 62.6 42.8 49% 29.92 0.0
30 05:55 NE 3 10.00 Fair CLR 64.4 44.6 49% 29.92 0.0
30 05:35 E 3 10.00 Fair CLR 64.4 41 43% 29.91 0.0
30 05:15 E 3 10.00 Fair CLR 64.4 42.8 46% 29.91 0.0
30 04:55 E 3 10.00 Fair CLR 64.4 41 43% 29.91 0.0
30 04:35 Calm 10.00 Fair CLR 66.2 41 40% 29.91 0.0
30 04:15 E 3 10.00 Fair CLR 66.2 39.2 37% 29.92 0.0
30 03:55 E 5 10.00 Fair CLR 64.4 37.4 37% 29.91 0.0
30 03:35 E 5 10.00 Fair CLR 66.2 37.4 35% 29.91 0.0
30 03:15 E 6 10.00 Fair CLR 66.2 35.6 32% 29.91 0.0
30 02:55 Calm 10.00 Fair CLR 68 37.4 33% 29.91 0.0
30 02:35 NE 3 10.00 Fair CLR 68 35.6 30% 29.91 0.0
30 02:15 Calm 10.00 Fair CLR 68 37.4 33% 29.9 0.0
Date Time (pdt) Wind (mph) Vis. (mi.) Weather Sky Cond. Air Dwpt Max. Min. Relative Humidity Wind Chill (°F) Heat Index (°F) altimeter (in) sea level (mb) 1 hr 3 hr 6 hr
6 hour
Temperature (ºF) Pressure Precipitation (in)